Time;durP1;ratioP1;P1;durP2;ratioP2;P2;SDS_P1;SDS_P2;PMS_P1;PMS_P2;Temp;Humidity;BMP_temperature;BMP_pressure;BME280_temperature;BME280_humidity;BME280_pressure;Samples;Min_cycle;Max_cycle;Signal;HPM_P1;HPM_P2
2022/09/23 00:00:02;;;;;;;1.30;1.10;;;22.40;48.20;;;;;;5053782;28;20041;-46
2022/09/23 00:02:28;;;;;;;1.50;0.95;;;22.40;48.20;;;;;;5040742;28;20036;-42
2022/09/23 00:04:54;;;;;;;1.20;0.93;;;22.40;48.20;;;;;;5065129;28;20032;-42
2022/09/23 00:07:20;;;;;;;2.20;0.70;;;22.40;48.20;;;;;;5063865;28;20067;-42
2022/09/23 00:09:46;;;;;;;1.00;0.75;;;22.40;48.20;;;;;;5057861;28;20028;-42
2022/09/23 00:12:11;;;;;;;1.25;1.02;;;22.40;48.20;;;;;;5065979;28;20125;-42
2022/09/23 00:14:37;;;;;;;1.55;0.90;;;22.40;48.20;;;;;;5051511;28;20048;-42
2022/09/23 00:17:04;;;;;;;1.33;0.90;;;22.40;48.10;;;;;;5066973;28;20033;-47
2022/09/23 00:19:29;;;;;;;1.42;0.98;;;22.40;48.20;;;;;;5073260;28;20101;-42
2022/09/23 00:21:55;;;;;;;1.58;1.00;;;22.40;48.10;;;;;;5068378;28;20029;-44
2022/09/23 00:24:22;;;;;;;1.25;0.90;;;22.40;48.20;;;;;;5052327;28;20036;-42
2022/09/23 00:26:47;;;;;;;1.55;0.88;;;22.40;48.20;;;;;;5052408;28;20029;-42
2022/09/23 00:29:14;;;;;;;1.55;0.98;;;22.40;48.10;;;;;;5039067;28;20028;-42
2022/09/23 00:31:40;;;;;;;1.58;1.00;;;22.40;48.20;;;;;;5052900;28;20021;-42
2022/09/23 00:34:09;;;;;;;1.75;1.00;;;22.40;48.10;;;;;;5072048;28;20506;-43
2022/09/23 00:36:35;;;;;;;1.58;1.40;;;22.40;48.20;;;;;;5057318;28;20047;-43
2022/09/23 00:39:02;;;;;;;1.55;1.00;;;22.40;48.10;;;;;;5056109;28;20028;-42
2022/09/23 00:41:29;;;;;;;0.93;0.80;;;22.40;48.10;;;;;;5061688;28;20490;-42
2022/09/23 00:43:57;;;;;;;1.70;0.90;;;22.30;48.10;;;;;;5053606;28;20111;-43
2022/09/23 00:46:32;;;;;;;1.65;0.75;;;22.30;48.00;;;;;;5050482;28;20037;-42
2022/09/23 00:49:14;;;;;;;1.60;1.10;;;22.30;48.00;;;;;;5053479;28;20059;-43
2022/09/23 00:51:47;;;;;;;0.65;0.65;;;22.30;48.00;;;;;;5053379;28;20021;-42
2022/09/23 00:54:13;;;;;;;1.10;0.80;;;22.30;48.00;;;;;;5071084;28;20048;-43
2022/09/23 00:56:39;;;;;;;1.67;1.10;;;22.30;48.00;;;;;;5063073;28;20121;-42
2022/09/23 00:59:08;;;;;;;1.27;0.80;;;22.40;48.10;;;;;;5051335;28;20064;-48
2022/09/23 01:01:36;;;;;;;1.75;1.25;;;22.40;48.10;;;;;;5050273;28;20021;-42
2022/09/23 01:04:03;;;;;;;1.70;1.10;;;22.30;48.00;;;;;;5059083;28;20033;-42
2022/09/23 01:06:28;;;;;;;1.13;0.80;;;22.30;48.00;;;;;;5052003;28;20074;-43
2022/09/23 01:08:54;;;;;;;1.30;1.00;;;22.30;48.00;;;;;;5052826;28;20025;-43
2022/09/23 01:11:33;;;;;;;1.48;0.90;;;22.30;48.10;;;;;;5052541;28;20025;-43
2022/09/23 01:14:26;;;;;;;1.02;0.93;;;22.30;48.00;;;;;;5048726;28;20025;-45
2022/09/23 01:17:01;;;;;;;1.48;1.00;;;22.30;48.00;;;;;;5052298;28;20044;-45
2022/09/23 01:19:32;;;;;;;2.05;1.45;;;22.30;48.00;;;;;;5046428;28;20032;-44
2022/09/23 01:22:13;;;;;;;0.90;0.70;;;22.30;48.00;;;;;;5052110;28;20031;-42
2022/09/23 01:25:15;;;;;;;1.15;1.00;;;22.30;48.00;;;;;;5049839;28;20170;-42
2022/09/23 01:27:57;;;;;;;1.90;0.88;;;22.30;48.00;;;;;;5048581;28;20079;-42
2022/09/23 01:30:25;;;;;;;;;;;22.30;48.00;;;;;;5049750;28;20041;-44
2022/09/23 01:33:06;;;;;;;1.73;1.00;;;22.30;48.00;;;;;;5051567;28;19963;-42
2022/09/23 01:35:46;;;;;;;0.88;0.82;;;22.30;48.00;;;;;;5056448;28;20375;-42
2022/09/23 01:38:32;;;;;;;1.67;1.10;;;22.30;47.90;;;;;;5059135;28;20048;-42
2022/09/23 01:41:20;;;;;;;1.58;0.93;;;22.30;48.00;;;;;;5050045;28;20033;-46
2022/09/23 01:43:53;;;;;;;1.83;1.25;;;22.30;48.00;;;;;;5050262;28;20033;-42
2022/09/23 01:46:26;;;;;;;1.50;1.20;;;22.30;47.90;;;;;;5049677;28;20032;-42
2022/09/23 01:49:07;;;;;;;1.65;1.00;;;22.30;47.90;;;;;;5050638;28;20032;-42
2022/09/23 01:51:46;;;;;;;1.58;1.15;;;22.30;47.90;;;;;;5052350;28;20102;-42
2022/09/23 01:54:24;;;;;;;1.98;1.05;;;22.30;47.90;;;;;;5047690;28;20044;-45
2022/09/23 01:57:04;;;;;;;2.10;0.88;;;22.30;47.90;;;;;;5050131;28;20037;-45
2022/09/23 01:59:39;;;;;;;1.75;0.95;;;22.30;47.90;;;;;;5070045;28;20037;-46
2022/09/23 02:02:29;;;;;;;2.05;1.08;;;22.30;47.90;;;;;;5059294;28;20037;-52
2022/09/23 02:05:13;;;;;;;1.33;0.85;;;22.30;47.90;;;;;;5050887;28;20033;-48
2022/09/23 02:08:02;;;;;;;1.40;1.10;;;22.30;47.80;;;;;;5046283;28;20032;-46
2022/09/23 02:10:34;;;;;;;1.63;0.90;;;22.30;47.80;;;;;;5050016;28;20079;-45
2022/09/23 02:13:06;;;;;;;1.98;0.90;;;22.30;47.80;;;;;;5049708;28;20133;-45
2022/09/23 02:15:37;;;;;;;1.30;1.00;;;22.20;47.80;;;;;;5050247;28;20025;-45
2022/09/23 02:18:10;;;;;;;1.67;1.10;;;22.30;47.80;;;;;;5053198;28;20037;-44
2022/09/23 02:20:38;;;;;;;1.23;0.77;;;22.30;47.80;;;;;;5048192;28;20158;-46
2022/09/23 02:23:13;;;;;;;1.15;0.88;;;22.30;47.80;;;;;;5050263;28;20039;-52
2022/09/23 02:25:57;;;;;;;0.98;0.88;;;22.30;47.80;;;;;;5050423;28;20021;-45
2022/09/23 02:28:51;;;;;;;1.83;1.20;;;22.30;47.70;;;;;;5049789;28;20052;-47
2022/09/23 02:31:36;;;;;;;1.33;0.75;;;22.30;47.80;;;;;;5049600;28;20096;-44
2022/09/23 02:34:11;;;;;;;1.67;1.00;;;22.30;47.80;;;;;;5048744;28;20493;-45
2022/09/23 02:37:00;;;;;;;0.90;0.80;;;22.30;47.80;;;;;;5059602;28;20040;-44
2022/09/23 02:39:33;;;;;;;1.52;1.00;;;22.20;47.70;;;;;;5058570;28;20090;-45
2022/09/23 02:42:26;;;;;;;1.10;1.00;;;22.20;47.70;;;;;;5036983;28;20446;-44
2022/09/23 02:44:52;;;;;;;1.48;1.00;;;22.20;47.70;;;;;;5061184;28;20029;-44
2022/09/23 02:47:22;;;;;;;1.40;0.95;;;22.20;47.70;;;;;;5070276;28;20040;-45
2022/09/23 02:49:48;;;;;;;1.58;0.90;;;22.20;47.70;;;;;;5063860;28;20020;-42
2022/09/23 02:52:15;;;;;;;1.05;0.82;;;22.20;47.60;;;;;;5043618;28;20032;-41
2022/09/23 02:54:40;;;;;;;1.58;1.10;;;22.20;47.70;;;;;;5051232;28;20029;-42
2022/09/23 02:57:07;;;;;;;2.45;1.10;;;22.20;47.70;;;;;;5051245;28;20037;-47
2022/09/23 02:59:34;;;;;;;1.05;0.73;;;22.30;47.70;;;;;;5051175;28;20056;-42
2022/09/23 03:02:16;;;;;;;2.42;1.02;;;22.20;47.70;;;;;;5051899;28;20028;-41
2022/09/23 03:05:06;;;;;;;1.67;0.93;;;22.20;47.70;;;;;;5060461;28;20025;-41
2022/09/23 03:07:46;;;;;;;1.88;1.00;;;22.20;47.60;;;;;;5050869;28;20049;-43
2022/09/23 03:10:24;;;;;;;1.15;1.00;;;22.20;47.60;;;;;;5053088;28;20039;-43
2022/09/23 03:13:15;;;;;;;1.55;0.95;;;22.20;47.60;;;;;;5052045;28;20060;-43
2022/09/23 03:16:03;;;;;;;1.70;0.90;;;22.20;47.60;;;;;;5052929;28;20032;-44
2022/09/23 03:18:33;;;;;;;2.20;0.80;;;22.20;47.60;;;;;;5051893;28;20085;-45
2022/09/23 03:21:10;;;;;;;1.75;1.10;;;22.20;47.60;;;;;;5053741;28;20101;-43
2022/09/23 03:23:39;;;;;;;1.45;0.88;;;22.20;47.60;;;;;;5054444;28;20374;-42
2022/09/23 03:26:28;;;;;;;1.50;1.00;;;22.20;47.60;;;;;;5054516;28;20064;-45
2022/09/23 03:28:54;;;;;;;1.48;1.08;;;22.20;47.60;;;;;;5055047;28;20090;-44
2022/09/23 03:31:19;;;;;;;1.15;0.82;;;22.20;47.60;;;;;;5052497;28;20116;-45
2022/09/23 03:33:56;;;;;;;1.58;1.30;;;22.20;47.60;;;;;;5052710;28;20021;-42
2022/09/23 03:39:33;;;;;;;3.50;0.90;;;22.20;47.50;;;;;;5053033;28;20071;-42
2022/09/23 03:42:04;;;;;;;1.20;0.93;;;22.20;47.60;;;;;;5055329;28;20104;-43
2022/09/23 03:44:36;;;;;;;1.40;1.13;;;22.20;47.50;;;;;;5048853;28;20064;-45
2022/09/23 03:47:02;;;;;;;;;;;22.20;47.50;;;;;;5053708;28;20322;-42
2022/09/23 03:49:32;;;;;;;3.85;1.05;;;22.20;47.50;;;;;;5050245;28;19961;-42
2022/09/23 03:51:59;;;;;;;1.23;0.90;;;22.20;47.60;;;;;;5055294;28;20071;-42
2022/09/23 03:54:24;;;;;;;1.23;0.90;;;22.20;47.50;;;;;;5051198;28;20029;-45
2022/09/23 03:56:50;;;;;;;1.00;0.90;;;22.20;47.50;;;;;;5054021;28;20090;-47
2022/09/23 03:59:16;;;;;;;1.40;1.30;;;22.20;47.50;;;;;;5052156;28;20444;-42
2022/09/23 04:01:42;;;;;;;1.67;1.00;;;22.20;47.50;;;;;;5053073;28;20028;-45
2022/09/23 04:04:08;;;;;;;2.30;1.15;;;22.20;47.50;;;;;;5050679;28;20074;-50
2022/09/23 04:06:34;;;;;;;1.23;1.10;;;22.20;47.50;;;;;;5053407;28;20025;-45
2022/09/23 04:09:00;;;;;;;1.50;0.85;;;22.20;47.50;;;;;;5052442;28;20788;-47
2022/09/23 04:11:27;;;;;;;1.58;1.10;;;22.20;47.50;;;;;;5051508;28;20331;-45
2022/09/23 04:13:55;;;;;;;1.20;0.85;;;22.20;47.50;;;;;;5053950;28;20064;-45
2022/09/23 04:16:20;;;;;;;1.60;0.90;;;22.20;47.50;;;;;;5051511;28;20386;-43
2022/09/23 04:18:46;;;;;;;1.08;0.80;;;22.20;47.50;;;;;;5047803;28;20037;-44
2022/09/23 04:21:11;;;;;;;1.95;1.42;;;22.20;47.50;;;;;;5051980;28;20386;-46
2022/09/23 04:23:37;;;;;;;1.45;1.20;;;22.20;47.50;;;;;;5053089;28;20020;-44
2022/09/23 04:26:04;;;;;;;1.30;1.10;;;22.20;47.50;;;;;;5054712;28;20028;-45
2022/09/23 04:28:30;;;;;;;1.50;1.10;;;22.20;47.60;;;;;;5052613;28;20160;-45
2022/09/23 04:30:56;;;;;;;1.40;0.98;;;22.20;47.50;;;;;;5051503;28;20025;-46
2022/09/23 04:33:23;;;;;;;1.33;1.02;;;22.20;47.50;;;;;;5061210;28;20029;-45
2022/09/23 04:35:50;;;;;;;1.20;0.90;;;22.20;48.20;;;;;;5061496;28;20025;-46
2022/09/23 04:38:16;;;;;;;1.35;1.10;;;22.20;47.50;;;;;;5055381;28;20433;-44
2022/09/23 04:40:42;;;;;;;1.70;1.27;;;22.20;47.50;;;;;;5058739;28;20025;-44
2022/09/23 04:43:08;;;;;;;1.33;1.10;;;22.20;47.60;;;;;;5057826;28;20020;-51
2022/09/23 04:45:34;;;;;;;4.55;1.17;;;22.20;47.60;;;;;;5072289;28;20342;-44
2022/09/23 04:48:00;;;;;;;1.25;0.95;;;22.10;47.50;;;;;;5064767;28;20108;-44
2022/09/23 04:50:26;;;;;;;2.15;1.48;;;22.10;47.60;;;;;;5053814;28;20126;-46
2022/09/23 04:52:52;;;;;;;2.42;1.77;;;22.10;46.00;;;;;;5050658;28;20037;-46
2022/09/23 04:55:18;;;;;;;2.58;1.85;;;22.00;41.90;;;;;;5052210;28;20104;-45
2022/09/23 04:57:44;;;;;;;1.73;1.40;;;21.80;41.20;;;;;;5052779;28;20116;-44
2022/09/23 05:00:11;;;;;;;3.10;1.55;;;21.90;42.80;;;;;;5057779;28;20025;-48
2022/09/23 05:02:47;;;;;;;3.58;1.58;;;22.00;43.90;;;;;;5072049;28;20074;-45
2022/09/23 05:05:17;;;;;;;1.58;1.10;;;22.00;45.80;;;;;;5069208;28;20546;-45
2022/09/23 05:07:43;;;;;;;1.00;0.90;;;22.00;46.10;;;;;;5072470;28;20090;-44
2022/09/23 05:10:08;;;;;;;1.60;1.13;;;22.00;46.20;;;;;;5068205;28;20033;-50
2022/09/23 05:12:34;;;;;;;2.50;1.27;;;22.00;46.30;;;;;;5052254;28;20056;-44
2022/09/23 05:15:00;;;;;;;2.20;0.93;;;22.00;46.70;;;;;;5052852;28;20033;-44
2022/09/23 05:17:25;;;;;;;1.27;1.05;;;22.00;46.40;;;;;;5061591;28;20482;-46
2022/09/23 05:19:51;;;;;;;2.28;1.20;;;22.00;47.10;;;;;;5052464;28;20493;-45
2022/09/23 05:22:16;;;;;;;1.33;1.17;;;22.00;46.50;;;;;;5063959;28;20032;-46
2022/09/23 05:24:42;;;;;;;2.67;1.33;;;22.00;46.60;;;;;;5070691;28;20028;-44
2022/09/23 05:27:08;;;;;;;2.45;1.40;;;22.10;46.70;;;;;;5070781;28;20032;-45
2022/09/23 05:29:33;;;;;;;2.65;0.98;;;22.10;46.70;;;;;;5056116;28;20029;-44
2022/09/23 05:32:00;;;;;;;2.60;1.15;;;22.10;47.00;;;;;;5061227;28;20056;-45
2022/09/23 05:34:26;;;;;;;3.67;1.77;;;22.10;47.20;;;;;;5055607;28;20044;-47
2022/09/23 05:36:52;;;;;;;1.77;1.30;;;22.20;47.70;;;;;;5055690;28;20493;-44
2022/09/23 05:39:18;;;;;;;3.25;1.33;;;22.20;47.70;;;;;;5051617;28;20033;-46
2022/09/23 05:41:44;;;;;;;4.75;1.45;;;22.20;48.10;;;;;;5068296;28;20032;-44
2022/09/23 05:44:10;;;;;;;3.15;1.13;;;22.20;48.30;;;;;;5061934;28;20033;-49
2022/09/23 05:46:36;;;;;;;3.17;1.10;;;22.20;48.30;;;;;;5051604;28;20093;-45
2022/09/23 05:49:03;;;;;;;1.58;1.10;;;22.20;48.40;;;;;;5052261;28;20078;-44
2022/09/23 05:51:29;;;;;;;1.88;1.20;;;22.30;48.40;;;;;;5065976;28;20386;-44
2022/09/23 05:53:57;;;;;;;6.00;1.05;;;22.30;48.40;;;;;;5052204;28;20088;-43
2022/09/23 05:56:24;;;;;;;2.08;1.25;;;22.20;48.50;;;;;;5050814;28;20039;-44
2022/09/23 05:58:51;;;;;;;2.47;1.52;;;22.20;48.60;;;;;;5052235;28;20049;-44
2022/09/23 06:01:20;;;;;;;8.52;2.63;;;22.30;48.80;;;;;;5054125;28;20033;-44
2022/09/23 06:03:50;;;;;;;1.63;1.10;;;22.30;48.90;;;;;;5071161;28;20029;-44
2022/09/23 06:06:19;;;;;;;6.75;1.70;;;22.30;48.80;;;;;;5054660;28;20033;-47
2022/09/23 06:08:46;;;;;;;1.85;1.08;;;22.30;48.80;;;;;;5064156;28;20033;-44
2022/09/23 06:11:12;;;;;;;3.22;1.00;;;22.30;49.00;;;;;;5061505;28;20492;-48
2022/09/23 06:13:39;;;;;;;1.33;0.88;;;22.30;48.70;;;;;;5070790;28;20040;-44
2022/09/23 06:16:07;;;;;;;4.45;1.23;;;22.30;48.90;;;;;;5071066;28;20117;-46
2022/09/23 06:18:38;;;;;;;3.42;1.20;;;22.30;49.10;;;;;;5052440;28;20052;-46
2022/09/23 06:21:04;;;;;;;2.35;1.35;;;22.30;49.00;;;;;;5058142;28;20111;-44
2022/09/23 06:23:30;;;;;;;2.67;1.13;;;22.30;49.00;;;;;;5064891;28;20044;-45
2022/09/23 06:26:04;;;;;;;3.20;1.35;;;22.20;49.10;;;;;;5051775;28;20029;-46
2022/09/23 06:28:37;;;;;;;2.05;1.05;;;22.30;49.10;;;;;;5064820;28;20090;-49
2022/09/23 06:31:07;;;;;;;1.70;0.95;;;22.30;49.10;;;;;;5041332;28;20065;-49
2022/09/23 06:33:33;;;;;;;3.10;1.20;;;22.20;49.00;;;;;;5069658;28;20033;-47
2022/09/23 06:36:00;;;;;;;2.95;1.10;;;22.20;49.00;;;;;;5063955;28;20037;-45
2022/09/23 06:38:27;;;;;;;2.60;0.93;;;22.20;49.00;;;;;;5054929;28;20028;-49
2022/09/23 06:40:54;;;;;;;4.75;1.17;;;22.20;48.90;;;;;;5046070;28;20043;-47
2022/09/23 06:43:23;;;;;;;2.05;1.20;;;22.20;48.90;;;;;;5054389;28;20029;-47
2022/09/23 06:45:53;;;;;;;1.52;1.25;;;22.20;48.90;;;;;;5055459;28;20029;-46
2022/09/23 06:48:19;;;;;;;1.83;1.10;;;22.20;48.80;;;;;;5054337;28;20035;-46
2022/09/23 06:50:45;;;;;;;2.08;0.90;;;22.20;48.80;;;;;;5055397;28;20069;-45
2022/09/23 06:53:11;;;;;;;2.30;1.35;;;22.20;48.80;;;;;;5063448;28;20061;-45
2022/09/23 06:55:37;;;;;;;1.55;0.88;;;22.20;48.80;;;;;;5054461;28;20048;-45
2022/09/23 06:58:03;;;;;;;1.50;1.10;;;22.20;48.70;;;;;;5072486;28;20067;-44
2022/09/23 07:00:28;;;;;;;2.33;1.30;;;22.20;48.70;;;;;;5053853;28;20033;-45
2022/09/23 07:02:54;;;;;;;2.08;1.23;;;22.20;48.70;;;;;;5071675;28;20029;-48
2022/09/23 07:05:21;;;;;;;3.13;1.48;;;22.20;48.70;;;;;;5067538;28;20032;-46
2022/09/23 07:07:47;;;;;;;1.60;1.30;;;22.20;48.70;;;;;;5052465;28;20047;-45
2022/09/23 07:10:13;;;;;;;3.13;1.42;;;22.20;48.60;;;;;;5054908;28;20091;-51
2022/09/23 07:12:39;;;;;;;1.95;1.13;;;22.20;48.60;;;;;;5053839;28;20114;-45
2022/09/23 07:15:06;;;;;;;2.42;1.00;;;22.20;48.70;;;;;;5053819;28;20025;-47
2022/09/23 07:17:32;;;;;;;2.05;1.23;;;22.20;48.70;;;;;;5053294;28;20033;-47
2022/09/23 07:19:57;;;;;;;1.55;1.10;;;22.20;48.60;;;;;;5054271;28;20090;-45
2022/09/23 07:22:25;;;;;;;1.52;1.25;;;22.20;48.60;;;;;;5053021;28;20477;-45
2022/09/23 07:24:55;;;;;;;1.80;1.15;;;22.20;48.60;;;;;;5054517;28;20021;-45
2022/09/23 07:27:25;;;;;;;1.35;1.10;;;22.20;48.60;;;;;;5053005;28;20035;-44
2022/09/23 07:29:51;;;;;;;1.83;1.20;;;22.20;48.60;;;;;;5046176;28;20108;-45
2022/09/23 07:32:18;;;;;;;2.22;0.85;;;22.20;48.60;;;;;;5053450;28;20040;-49
2022/09/23 07:34:45;;;;;;;1.98;1.23;;;22.20;48.50;;;;;;5053129;28;20033;-45
2022/09/23 07:37:11;;;;;;;2.72;1.30;;;22.20;48.50;;;;;;5053709;28;20044;-46
2022/09/23 07:39:38;;;;;;;1.42;1.08;;;22.20;48.60;;;;;;5053027;28;20029;-44
2022/09/23 07:42:05;;;;;;;1.25;1.08;;;22.20;48.50;;;;;;5053874;28;20355;-49
2022/09/23 07:44:31;;;;;;;1.27;1.00;;;22.20;48.60;;;;;;5053239;28;20024;-45
2022/09/23 07:46:58;;;;;;;2.92;1.77;;;22.20;48.50;;;;;;5061948;28;20036;-47
2022/09/23 07:49:25;;;;;;;1.33;0.90;;;22.20;48.50;;;;;;5053681;28;20042;-47
2022/09/23 07:51:51;;;;;;;1.42;1.10;;;22.20;48.60;;;;;;5053409;28;20033;-46
2022/09/23 07:54:18;;;;;;;2.22;1.50;;;22.20;48.60;;;;;;5050352;28;20064;-51
2022/09/23 07:56:44;;;;;;;2.45;1.50;;;22.20;48.60;;;;;;5053496;28;20029;-45
2022/09/23 07:59:17;;;;;;;3.60;1.48;;;22.20;48.90;;;;;;5053366;28;20091;-48
2022/09/23 08:01:45;;;;;;;1.52;1.17;;;22.20;49.10;;;;;;5053228;28;20043;-48
2022/09/23 08:04:16;;;;;;;1.90;1.08;;;22.20;49.10;;;;;;5053456;28;20029;-45
2022/09/23 08:06:43;;;;;;;2.35;1.20;;;22.20;49.30;;;;;;5053123;28;20040;-44
2022/09/23 08:09:10;;;;;;;1.08;0.93;;;22.20;49.40;;;;;;5052750;28;20504;-46
2022/09/23 08:11:40;;;;;;;1.70;1.00;;;22.20;49.50;;;;;;5052219;28;20100;-44
2022/09/23 08:14:09;;;;;;;1.27;1.10;;;22.20;49.50;;;;;;5054120;28;20029;-45
2022/09/23 08:16:36;;;;;;;3.60;1.58;;;22.20;49.50;;;;;;5058179;28;20028;-44
2022/09/23 08:19:01;;;;;;;2.50;1.35;;;22.20;49.50;;;;;;5053597;28;20037;-48
2022/09/23 08:21:27;;;;;;;2.10;1.20;;;22.20;49.40;;;;;;5053623;28;20036;-45
2022/09/23 08:23:54;;;;;;;1.67;1.27;;;22.20;49.40;;;;;;5049125;28;20028;-44
2022/09/23 08:26:19;;;;;;;2.83;1.20;;;22.20;49.40;;;;;;5062369;28;20039;-46
2022/09/23 08:28:46;;;;;;;1.75;1.20;;;22.20;49.40;;;;;;5072646;28;20032;-48
2022/09/23 08:31:12;;;;;;;1.83;1.20;;;22.20;49.30;;;;;;5071868;28;20035;-47
2022/09/23 08:33:39;;;;;;;1.90;1.00;;;22.20;49.30;;;;;;5070865;28;20039;-47
2022/09/23 08:36:06;;;;;;;2.40;1.08;;;22.20;49.30;;;;;;5054720;28;20033;-45
2022/09/23 08:38:32;;;;;;;3.30;1.23;;;22.20;49.30;;;;;;5052480;28;20043;-44
2022/09/23 08:41:32;;;;;;;1.85;1.27;;;22.20;49.30;;;;;;5055493;28;20393;-49
2022/09/23 08:44:02;;;;;;;1.50;1.08;;;22.20;49.30;;;;;;5054628;28;20035;-49
2022/09/23 08:46:36;;;;;;;2.85;1.10;;;22.20;49.20;;;;;;5068896;28;20040;-44
2022/09/23 08:49:06;;;;;;;3.45;1.70;;;22.20;49.80;;;;;;5060845;28;20041;-44
2022/09/23 08:51:53;;;;;;;2.35;1.27;;;22.20;49.20;;;;;;5071093;28;20223;-44
2022/09/23 08:54:19;;;;;;;4.50;1.83;;;22.20;49.20;;;;;;5064218;28;20036;-47
2022/09/23 08:56:51;;;;;;;3.20;1.30;;;22.20;49.40;;;;;;5057806;28;20391;-45
2022/09/23 08:59:27;;;;;;;3.88;1.70;;;22.20;49.70;;;;;;5054424;28;20047;-50
2022/09/23 09:01:58;;;;;;;3.97;1.27;;;22.20;50.10;;;;;;5070959;28;20035;-45
2022/09/23 09:04:27;;;;;;;5.43;1.75;;;22.30;50.10;;;;;;5071098;28;20108;-45
2022/09/23 09:07:06;;;;;;;5.07;1.70;;;22.30;50.10;;;;;;5071353;28;20032;-45
2022/09/23 09:09:40;;;;;;;8.30;1.55;;;22.30;50.70;;;;;;5062111;28;20029;-45
2022/09/23 09:12:14;;;;;;;2.63;1.48;;;22.30;51.10;;;;;;5045933;28;20095;-45
2022/09/23 09:15:11;;;;;;;2.88;1.48;;;22.30;51.60;;;;;;5049129;28;20037;-45
2022/09/23 09:17:47;;;;;;;5.93;1.63;;;22.30;52.00;;;;;;5032248;28;20098;-49
2022/09/23 09:21:01;;;;;;;2.83;1.70;;;22.30;52.90;;;;;;5036225;28;20033;-45
2022/09/23 09:23:37;;;;;;;4.15;1.52;;;22.40;52.70;;;;;;5021335;28;20088;-44
2022/09/23 09:26:05;;;;;;;3.00;1.48;;;22.30;52.80;;;;;;5017502;28;20425;-44
2022/09/23 09:28:40;;;;;;;6.72;2.15;;;22.30;53.10;;;;;;5031558;28;20029;-48
2022/09/23 09:31:29;;;;;;;2.67;1.55;;;22.30;53.10;;;;;;5033765;28;20026;-45
2022/09/23 09:34:04;;;;;;;7.30;2.40;;;22.30;53.50;;;;;;5048888;28;20390;-45
2022/09/23 09:36:54;;;;;;;4.57;1.95;;;22.30;53.70;;;;;;5039767;28;20055;-48
2022/09/23 09:39:19;;;;;;;5.20;1.40;;;22.30;53.40;;;;;;5025632;28;20037;-46
2022/09/23 09:41:50;;;;;;;3.17;1.42;;;22.30;53.70;;;;;;5034315;28;20117;-46
2022/09/23 09:44:24;;;;;;;6.97;2.00;;;22.30;53.60;;;;;;5051085;28;20440;-47
2022/09/23 09:47:14;;;;;;;3.55;1.70;;;22.30;53.70;;;;;;5040670;28;20040;-45
2022/09/23 09:50:02;;;;;;;2.92;1.30;;;22.30;53.70;;;;;;5038996;28;20037;-45
2022/09/23 09:52:28;;;;;;;5.25;1.75;;;22.30;53.70;;;;;;5039729;28;20028;-46
2022/09/23 09:55:23;;;;;;;3.42;1.42;;;22.30;53.80;;;;;;5042168;28;20044;-45
2022/09/23 09:58:00;;;;;;;3.67;1.13;;;22.30;53.60;;;;;;5047267;28;20036;-45
2022/09/23 10:00:26;;;;;;;3.22;1.67;;;22.30;53.50;;;;;;5049284;28;20028;-45
2022/09/23 10:02:54;;;;;;;3.15;1.80;;;22.30;54.10;;;;;;5041784;28;20489;-45
2022/09/23 10:05:46;;;;;;;3.78;1.70;;;22.30;53.50;;;;;;5030578;28;20037;-49
2022/09/23 10:08:18;;;;;;;4.85;1.65;;;22.30;53.50;;;;;;5024495;28;20025;-47
2022/09/23 10:10:54;;;;;;;3.05;1.30;;;22.30;53.50;;;;;;5046912;28;20040;-45
2022/09/23 10:13:25;;;;;;;5.15;2.60;;;22.30;53.50;;;;;;5049911;28;20052;-51
2022/09/23 10:15:53;;;;;;;2.95;1.20;;;22.30;53.40;;;;;;5048779;28;20536;-44
2022/09/23 10:18:37;;;;;;;4.45;2.22;;;22.30;53.40;;;;;;5031091;28;20033;-49
2022/09/23 10:21:06;;;;;;;3.80;1.83;;;22.30;53.40;;;;;;5039511;28;20045;-45
2022/09/23 10:23:32;;;;;;;3.97;1.60;;;22.30;53.60;;;;;;5050153;28;20021;-46
2022/09/23 10:26:01;;;;;;;2.03;1.30;;;22.30;53.50;;;;;;5043796;28;20055;-49
2022/09/23 10:28:49;;;;;;;2.92;1.45;;;22.30;53.40;;;;;;5040263;28;20386;-47
2022/09/23 10:31:25;;;;;;;3.83;1.35;;;22.30;53.40;;;;;;5048407;28;20033;-48
2022/09/23 10:33:59;;;;;;;2.08;1.40;;;22.30;53.40;;;;;;5047437;28;20082;-45
2022/09/23 10:36:30;;;;;;;5.28;1.83;;;22.30;53.30;;;;;;5022585;28;20436;-44
2022/09/23 10:48:24;;;;;;;4.45;1.73;;;22.30;53.10;;;;;;5031535;28;20614;-44
2022/09/23 10:50:52;;;;;;;4.45;1.30;;;22.30;53.10;;;;;;5031213;28;20482;-45
2022/09/23 10:53:32;;;;;;;2.78;1.50;;;22.30;53.10;;;;;;5037190;28;20871;-49
2022/09/23 10:56:14;;;;;;;2.72;1.35;;;22.30;53.00;;;;;;5041131;28;20060;-44
2022/09/23 10:59:09;;;;;;;3.70;1.67;;;22.30;53.00;;;;;;5015894;28;20056;-46
2022/09/23 11:01:48;;;;;;;1.30;1.00;;;22.30;52.90;;;;;;5039809;28;20029;-44
2022/09/23 11:04:20;;;;;;;2.33;1.40;;;22.30;53.00;;;;;;5041509;28;20021;-48
2022/09/23 11:07:00;;;;;;;2.45;1.70;;;22.30;52.80;;;;;;5036879;28;20041;-45
2022/09/23 11:09:49;;;;;;;3.88;1.65;;;22.30;52.90;;;;;;5032903;28;20029;-44
2022/09/23 11:12:40;;;;;;;2.80;1.70;;;22.30;52.80;;;;;;5043787;28;20065;-46
2022/09/23 11:15:28;;;;;;;3.60;1.48;;;22.30;52.70;;;;;;5055378;28;20393;-51
2022/09/23 11:18:17;;;;;;;3.13;1.80;;;22.30;52.60;;;;;;5054804;28;20037;-44
2022/09/23 11:21:09;;;;;;;2.45;1.58;;;22.40;52.50;;;;;;5050114;28;20462;-44
2022/09/23 11:23:55;;;;;;;3.72;1.33;;;22.40;52.50;;;;;;5049473;28;20029;-44
2022/09/23 11:26:43;;;;;;;4.05;1.80;;;22.40;52.50;;;;;;5050020;28;20029;-47
2022/09/23 11:29:48;;;;;;;2.30;1.80;;;22.40;52.40;;;;;;5047714;28;20032;-45
2022/09/23 11:32:55;;;;;;;2.15;1.30;;;22.40;52.30;;;;;;5054168;28;20032;-44
2022/09/23 11:35:25;;;;;;;2.63;1.60;;;22.40;52.20;;;;;;5053473;28;20039;-51
2022/09/23 11:38:40;;;;;;;2.97;1.23;;;22.40;52.10;;;;;;5054037;28;20032;-49
2022/09/23 11:41:27;;;;;;;2.08;1.02;;;22.40;52.20;;;;;;5042656;28;20467;-46
2022/09/23 11:44:02;;;;;;;2.50;1.40;;;22.40;52.40;;;;;;5054113;28;20033;-46
2022/09/23 11:46:43;;;;;;;2.65;1.40;;;22.40;52.60;;;;;;5052963;28;20021;-51
2022/09/23 11:49:19;;;;;;;2.28;1.45;;;22.40;52.50;;;;;;5048231;28;20021;-45
2022/09/23 11:52:06;;;;;;;2.25;1.50;;;22.40;52.60;;;;;;5053631;28;20029;-47
2022/09/23 11:54:55;;;;;;;1.38;1.10;;;22.40;52.60;;;;;;5052397;28;20160;-46
2022/09/23 11:57:38;;;;;;;4.68;1.80;;;22.40;52.60;;;;;;5053051;28;20029;-54
2022/09/23 12:00:14;;;;;;;5.63;1.40;;;22.40;52.80;;;;;;5054000;28;20041;-45
2022/09/23 12:02:48;;;;;;;3.67;1.88;;;22.40;52.80;;;;;;5053233;28;20017;-47
2022/09/23 12:05:21;;;;;;;7.85;1.52;;;22.40;52.80;;;;;;5053910;28;20040;-45
2022/09/23 12:07:56;;;;;;;2.20;1.15;;;22.40;52.80;;;;;;5053156;28;20029;-50
2022/09/23 12:10:33;;;;;;;2.72;1.70;;;22.40;53.00;;;;;;5052430;28;20036;-57
2022/09/23 12:13:09;;;;;;;2.40;1.13;;;22.40;52.90;;;;;;5053042;28;20053;-46
2022/09/23 12:16:42;;;;;;;2.92;1.73;;;22.40;53.00;;;;;;5069819;28;20025;-50
2022/09/23 12:19:32;;;;;;;6.05;2.00;;;22.50;53.20;;;;;;4933843;29;20083;-46
2022/09/23 12:22:21;;;;;;;2.42;1.30;;;22.50;52.90;;;;;;4930971;29;20569;-47
2022/09/23 12:25:12;;;;;;;2.47;1.70;;;22.40;47.50;;;;;;4932855;29;20523;-48
2022/09/23 12:27:48;;;;;;;3.13;1.67;;;22.20;45.10;;;;;;4932272;29;20047;-47
2022/09/23 12:30:35;;;;;;;2.40;1.88;;;22.00;44.70;;;;;;4933831;29;20540;-46
2022/09/23 12:33:25;;;;;;;2.78;1.52;;;21.90;45.20;;;;;;4933484;29;20048;-46
2022/09/23 12:35:53;;;;;;;2.65;1.65;;;21.80;45.10;;;;;;4933157;29;20102;-46
2022/09/23 12:38:24;;;;;;;4.47;2.28;;;21.80;44.60;;;;;;4933213;29;20035;-48
2022/09/23 12:40:51;;;;;;;2.20;1.52;;;21.70;44.80;;;;;;4932753;29;20066;-47
2022/09/23 12:43:28;;;;;;;4.35;2.00;;;21.80;45.10;;;;;;4933146;29;20098;-49
2022/09/23 12:46:02;;;;;;;1.88;1.30;;;21.90;44.90;;;;;;4933232;29;20036;-46
2022/09/23 12:48:44;;;;;;;4.97;1.80;;;22.00;45.20;;;;;;4939096;28;20434;-47
2022/09/23 12:51:18;;;;;;;3.90;1.55;;;22.00;45.70;;;;;;4999093;28;20041;-48
2022/09/23 12:53:49;;;;;;;2.30;1.27;;;22.10;45.10;;;;;;5001862;28;20096;-51
2022/09/23 12:56:18;;;;;;;2.92;1.70;;;22.30;46.70;;;;;;5057043;28;20056;-46
2022/09/23 12:58:47;;;;;;;4.78;2.05;;;22.50;46.20;;;;;;5070929;28;20028;-46
2022/09/23 13:01:19;;;;;;;3.38;1.98;;;22.70;45.40;;;;;;5053363;28;20025;-46
2022/09/23 13:06:41;;;;;;;3.92;1.70;;;22.60;46.50;;;;;;5049661;28;20439;-49
2022/09/23 13:09:29;;;;;;;4.88;2.20;;;22.80;46.40;;;;;;5066317;28;20031;-48
2022/09/23 13:12:01;;;;;;;4.60;2.15;;;22.60;50.40;;;;;;5053672;28;20095;-50
2022/09/23 13:14:29;;;;;;;3.83;2.20;;;22.40;48.70;;;;;;5059805;28;20052;-47
2022/09/23 13:16:57;;;;;;;4.10;2.22;;;22.30;45.90;;;;;;5058421;28;20071;-48
2022/09/23 13:19:25;;;;;;;4.30;2.63;;;22.30;45.50;;;;;;5071905;28;20032;-55
2022/09/23 13:22:10;;;;;;;7.68;2.70;;;22.20;45.10;;;;;;5054426;28;20032;-52
2022/09/23 13:24:40;;;;;;;6.15;2.17;;;22.20;45.10;;;;;;5065313;28;20040;-47
2022/09/23 13:27:29;;;;;;;3.13;2.00;;;22.20;44.70;;;;;;5070262;28;20040;-47
2022/09/23 13:30:19;;;;;;;3.58;1.90;;;22.20;44.80;;;;;;5071654;28;20111;-47
2022/09/23 13:32:51;;;;;;;3.40;1.85;;;22.10;44.80;;;;;;5062818;28;20094;-49